Time;durP1;ratioP1;P1;durP2;ratioP2;P2;SDS_P1;SDS_P2;PMS_P1;PMS_P2;Temp;Humidity;BMP_temperature;BMP_pressure;BME280_temperature;BME280_humidity;BME280_pressure;Samples;Min_cycle;Max_cycle;Signal;HPM_P1;HPM_P2
2024/04/20 00:00:20;;;;;;;7.80;1.98;;;4.70;99.90;;;;;;5343020;26;20510;-74
2024/04/20 00:02:46;;;;;;;10.13;2.17;;;4.70;99.90;;;;;;5321176;26;20000;-73
2024/04/20 00:05:12;;;;;;;11.23;2.17;;;4.80;99.90;;;;;;5345108;26;20329;-73
2024/04/20 00:07:38;;;;;;;4.78;1.70;;;4.80;99.90;;;;;;5319317;26;20111;-73
2024/04/20 00:10:04;;;;;;;9.00;1.92;;;4.90;99.90;;;;;;5327061;26;20001;-74
2024/04/20 00:12:30;;;;;;;11.90;1.80;;;4.80;99.90;;;;;;5338190;26;20096;-73
2024/04/20 00:14:57;;;;;;;5.00;2.20;;;4.70;99.90;;;;;;5344555;26;20029;-73
2024/04/20 00:17:22;;;;;;;12.45;2.88;;;4.60;99.90;;;;;;5331441;26;20013;-74
2024/04/20 00:19:48;;;;;;;11.77;2.55;;;4.50;99.90;;;;;;5338306;26;20001;-74
2024/04/20 00:22:14;;;;;;;10.82;1.88;;;4.50;99.90;;;;;;5343971;26;20329;-73
2024/04/20 00:24:39;;;;;;;6.88;1.75;;;4.50;99.90;;;;;;5344064;26;20198;-74
2024/04/20 00:27:06;;;;;;;12.02;1.90;;;4.40;99.90;;;;;;5314429;26;20323;-73
2024/04/20 00:29:32;;;;;;;11.38;2.40;;;4.40;99.90;;;;;;5328344;26;20005;-73
2024/04/20 00:31:58;;;;;;;9.23;1.95;;;4.30;99.90;;;;;;5344264;26;20016;-73
2024/04/20 00:34:23;;;;;;;8.20;1.80;;;4.40;99.90;;;;;;5344196;26;20078;-73
2024/04/20 00:36:52;;;;;;;8.38;1.70;;;4.30;99.90;;;;;;5338274;26;19997;-74
2024/04/20 00:39:18;;;;;;;13.40;3.15;;;4.30;99.90;;;;;;5337247;26;19997;-74
2024/04/20 00:41:48;;;;;;;12.50;2.10;;;4.30;99.90;;;;;;5340709;26;20001;-73
2024/04/20 00:44:14;;;;;;;10.48;1.80;;;4.30;99.90;;;;;;5322380;26;20012;-73
2024/04/20 00:46:41;;;;;;;9.35;1.67;;;4.30;99.90;;;;;;5339733;26;19997;-74
2024/04/20 00:49:09;;;;;;;7.45;1.60;;;4.30;99.90;;;;;;5330447;26;20008;-73
2024/04/20 00:51:35;;;;;;;9.07;1.60;;;4.30;99.90;;;;;;5343275;26;20645;-74
2024/04/20 00:54:02;;;;;;;9.10;2.10;;;4.30;99.90;;;;;;5343287;26;20012;-74
2024/04/20 00:56:30;;;;;;;8.77;1.73;;;4.30;99.90;;;;;;5343397;26;19997;-74
2024/04/20 00:58:56;;;;;;;5.63;2.00;;;4.30;99.90;;;;;;5318267;26;20043;-73
2024/04/20 01:01:24;;;;;;;3.92;1.38;;;4.30;99.90;;;;;;5315389;26;20472;-74
2024/04/20 01:03:50;;;;;;;6.72;1.77;;;4.30;99.90;;;;;;5343631;26;20341;-73
2024/04/20 01:06:15;;;;;;;12.77;1.50;;;4.30;99.90;;;;;;5323498;26;20079;-73
2024/04/20 01:08:41;;;;;;;8.82;1.73;;;4.30;99.90;;;;;;5331315;26;20143;-73
2024/04/20 01:11:07;;;;;;;9.43;1.67;;;4.30;99.90;;;;;;5342067;26;20005;-74
2024/04/20 01:13:33;;;;;;;6.95;1.75;;;4.30;99.90;;;;;;5322811;26;20009;-73
2024/04/20 01:15:59;;;;;;;9.52;1.65;;;4.30;99.90;;;;;;5337774;26;20409;-73
2024/04/20 01:18:24;;;;;;;7.90;1.70;;;4.30;99.90;;;;;;5333684;26;19998;-74
2024/04/20 01:20:50;;;;;;;5.88;1.50;;;4.40;99.90;;;;;;5334501;26;20425;-73
2024/04/20 01:23:16;;;;;;;8.85;2.00;;;4.40;99.90;;;;;;5342460;26;20001;-74
2024/04/20 01:25:49;;;;;;;8.15;2.47;;;4.50;99.90;;;;;;5331220;26;20603;-73
2024/04/20 01:28:16;;;;;;;9.13;1.63;;;4.50;99.90;;;;;;5307375;26;20041;-73
2024/04/20 01:30:41;;;;;;;9.95;2.78;;;4.50;99.90;;;;;;5342002;26;20057;-73
2024/04/20 01:33:07;;;;;;;9.40;2.03;;;4.50;99.90;;;;;;5340977;26;19997;-73
2024/04/20 01:35:33;;;;;;;11.73;2.00;;;4.40;99.90;;;;;;5333634;26;20064;-74
2024/04/20 01:37:59;;;;;;;6.18;1.83;;;4.40;99.90;;;;;;5332410;26;20007;-73
2024/04/20 01:40:25;;;;;;;5.57;1.70;;;4.40;99.90;;;;;;5344315;26;19996;-74
2024/04/20 01:42:51;;;;;;;9.80;1.75;;;4.50;99.90;;;;;;5346071;26;20001;-75
2024/04/20 01:45:16;;;;;;;9.73;1.70;;;4.50;99.90;;;;;;5299706;26;20009;-73
2024/04/20 01:47:42;;;;;;;12.38;1.77;;;4.50;99.90;;;;;;5335261;26;19998;-73
2024/04/20 01:50:08;;;;;;;11.18;1.50;;;4.50;99.90;;;;;;5344964;26;20005;-73
2024/04/20 01:52:34;;;;;;;6.82;1.58;;;4.40;99.90;;;;;;5345034;26;20414;-72
2024/04/20 01:55:00;;;;;;;9.57;1.52;;;4.40;99.90;;;;;;5336919;26;20008;-74
2024/04/20 01:57:25;;;;;;;11.15;2.22;;;4.40;99.90;;;;;;5334744;26;20450;-74
2024/04/20 01:59:51;;;;;;;10.32;1.75;;;4.30;99.90;;;;;;5343220;26;19997;-75
2024/04/20 02:02:19;;;;;;;8.63;2.10;;;4.40;99.90;;;;;;5326994;26;20438;-74
2024/04/20 02:04:44;;;;;;;7.70;1.70;;;4.40;99.90;;;;;;5341866;26;20012;-74
2024/04/20 02:07:10;;;;;;;10.93;2.08;;;4.30;99.90;;;;;;5282361;26;19998;-72
2024/04/20 02:09:36;;;;;;;9.13;1.58;;;4.40;99.90;;;;;;5346182;26;20468;-73
2024/04/20 02:12:01;;;;;;;11.20;1.70;;;4.30;99.90;;;;;;5342908;26;20049;-73
2024/04/20 02:14:28;;;;;;;9.57;2.15;;;4.30;99.90;;;;;;5335836;26;20011;-73
2024/04/20 02:16:53;;;;;;;7.57;1.80;;;4.30;99.90;;;;;;5318753;26;19994;-73
2024/04/20 02:19:19;;;;;;;6.85;1.52;;;4.20;99.90;;;;;;5338572;26;20442;-73
2024/04/20 02:21:44;;;;;;;6.88;1.70;;;4.30;99.90;;;;;;5346924;26;20040;-73
2024/04/20 02:24:11;;;;;;;7.80;1.42;;;4.40;99.90;;;;;;5335028;26;20321;-73
2024/04/20 02:26:37;;;;;;;8.63;1.40;;;4.30;99.90;;;;;;5345323;26;20001;-73
2024/04/20 02:29:03;;;;;;;6.63;1.48;;;4.30;99.90;;;;;;5333515;26;20013;-73
2024/04/20 02:31:30;;;;;;;6.13;1.60;;;4.30;99.90;;;;;;5336529;26;20346;-73
2024/04/20 02:33:55;;;;;;;7.47;1.23;;;4.30;99.90;;;;;;5320235;26;20012;-72
2024/04/20 02:36:25;;;;;;;11.70;2.00;;;4.30;99.90;;;;;;5314566;26;20001;-74
2024/04/20 02:38:51;;;;;;;9.52;1.35;;;4.30;99.90;;;;;;5332695;26;20041;-72
2024/04/20 02:41:16;;;;;;;7.43;1.27;;;4.30;99.90;;;;;;5336866;26;20441;-73
2024/04/20 02:43:42;;;;;;;12.13;2.40;;;4.20;99.90;;;;;;5331954;26;20627;-73
2024/04/20 02:46:08;;;;;;;9.55;1.60;;;4.20;99.90;;;;;;5336482;26;20076;-72
2024/04/20 02:48:34;;;;;;;13.63;3.10;;;4.20;99.90;;;;;;5323626;26;20014;-73
2024/04/20 02:51:00;;;;;;;11.05;1.90;;;4.30;99.90;;;;;;5333706;26;20015;-73
2024/04/20 02:53:26;;;;;;;5.18;1.20;;;4.30;99.90;;;;;;5337090;26;19998;-73
2024/04/20 02:55:51;;;;;;;13.85;1.60;;;4.30;99.90;;;;;;5336973;26;20005;-73
2024/04/20 02:58:17;;;;;;;8.05;1.70;;;4.30;99.90;;;;;;5344899;26;20334;-73
2024/04/20 03:00:57;;;;;;;5.28;1.33;;;4.30;99.90;;;;;;5344392;26;20016;-73
2024/04/20 03:03:24;;;;;;;11.50;2.15;;;4.20;99.90;;;;;;5340499;26;20339;-74
2024/04/20 03:05:50;;;;;;;5.88;1.40;;;4.20;99.90;;;;;;5300439;26;20010;-73
2024/04/20 03:08:15;;;;;;;6.05;1.40;;;4.20;99.90;;;;;;5229214;27;20002;-72
2024/04/20 03:10:41;;;;;;;8.77;1.60;;;4.20;99.90;;;;;;5275282;27;20698;-73
2024/04/20 03:13:07;;;;;;;11.20;1.77;;;4.20;99.90;;;;;;5288446;27;20002;-73
2024/04/20 03:15:32;;;;;;;11.38;1.65;;;4.20;99.90;;;;;;5275968;27;20002;-72
2024/04/20 03:17:58;;;;;;;9.77;1.75;;;4.20;99.90;;;;;;5274828;27;20072;-73
2024/04/20 03:20:24;;;;;;;8.07;1.35;;;4.20;99.90;;;;;;5276550;27;20002;-73
2024/04/20 03:22:49;;;;;;;9.05;1.77;;;4.20;99.90;;;;;;5271788;27;20002;-74
2024/04/20 03:25:15;;;;;;;10.52;1.83;;;4.20;99.90;;;;;;5271104;27;20033;-73
2024/04/20 03:27:41;;;;;;;10.82;1.55;;;4.10;99.90;;;;;;5274676;27;20634;-73
2024/04/20 03:30:08;;;;;;;6.13;1.40;;;4.10;99.90;;;;;;5245855;27;20017;-73
2024/04/20 03:32:34;;;;;;;15.38;2.40;;;4.10;99.90;;;;;;5274842;27;20026;-73
2024/04/20 03:34:59;;;;;;;12.75;2.10;;;4.00;99.90;;;;;;5276380;27;19998;-73
2024/04/20 03:37:25;;;;;;;9.45;1.50;;;4.00;99.90;;;;;;5275669;27;19994;-73
2024/04/20 03:39:50;;;;;;;9.18;2.20;;;4.00;99.90;;;;;;5277086;27;20354;-73
2024/04/20 03:42:16;;;;;;;10.95;2.10;;;4.00;99.90;;;;;;5265436;27;20006;-73
2024/04/20 03:44:43;;;;;;;7.68;1.73;;;3.90;99.90;;;;;;5274905;27;20615;-73
2024/04/20 03:47:08;;;;;;;6.13;1.83;;;4.00;99.90;;;;;;5275693;27;20010;-73
2024/04/20 03:49:34;;;;;;;6.82;1.60;;;4.00;99.90;;;;;;5275718;27;20358;-73
2024/04/20 03:52:00;;;;;;;9.23;1.80;;;4.00;99.90;;;;;;5244591;27;20012;-73
2024/04/20 03:54:25;;;;;;;6.45;1.25;;;4.00;99.90;;;;;;5275655;27;20012;-73
2024/04/20 03:56:51;;;;;;;8.43;1.65;;;4.00;99.90;;;;;;5267266;27;20010;-73
2024/04/20 03:59:16;;;;;;;12.43;2.25;;;4.00;99.90;;;;;;5275097;27;20433;-73
2024/04/20 04:01:42;;;;;;;7.28;1.55;;;4.00;99.90;;;;;;5273259;27;20006;-73
2024/04/20 04:04:07;;;;;;;9.73;2.85;;;4.00;99.90;;;;;;5276341;27;20013;-72
2024/04/20 04:06:33;;;;;;;12.23;1.63;;;4.10;99.90;;;;;;5309085;27;20006;-74
2024/04/20 04:08:59;;;;;;;11.32;1.83;;;4.20;99.90;;;;;;5333590;26;20460;-73
2024/04/20 04:11:24;;;;;;;16.98;2.05;;;4.20;99.90;;;;;;5326762;26;19997;-74
2024/04/20 04:13:50;;;;;;;10.10;2.30;;;4.10;99.90;;;;;;5308190;26;20480;-73
2024/04/20 04:16:16;;;;;;;11.35;2.00;;;4.20;99.90;;;;;;5337539;26;20031;-73
2024/04/20 04:18:41;;;;;;;12.20;2.17;;;4.20;99.90;;;;;;5331178;26;20137;-73
2024/04/20 04:21:10;;;;;;;12.02;2.15;;;4.20;99.90;;;;;;5322378;26;19997;-73
2024/04/20 04:23:37;;;;;;;7.95;1.90;;;4.30;99.90;;;;;;5342172;26;20009;-73
2024/04/20 04:26:03;;;;;;;7.78;2.10;;;4.30;99.90;;;;;;5342180;26;20000;-74
2024/04/20 04:28:29;;;;;;;9.05;1.60;;;4.30;99.90;;;;;;5310230;26;20001;-74
2024/04/20 04:30:55;;;;;;;14.02;2.80;;;4.30;99.90;;;;;;5316159;26;20002;-74
2024/04/20 04:33:21;;;;;;;8.25;1.70;;;4.30;99.90;;;;;;5323081;26;20011;-73
2024/04/20 04:35:46;;;;;;;13.20;2.67;;;4.30;99.90;;;;;;5344165;26;20348;-75
2024/04/20 04:38:12;;;;;;;11.98;2.60;;;4.30;99.90;;;;;;5325054;26;20001;-74
2024/04/20 04:40:37;;;;;;;9.10;1.80;;;4.30;99.90;;;;;;5327031;26;20333;-74
2024/04/20 04:43:03;;;;;;;13.40;2.33;;;4.20;99.90;;;;;;5334434;26;20004;-74
2024/04/20 04:45:30;;;;;;;9.38;2.03;;;4.20;99.90;;;;;;5343350;26;20092;-74
2024/04/20 04:47:55;;;;;;;12.35;1.88;;;4.20;99.90;;;;;;5312396;26;19996;-74
2024/04/20 04:50:21;;;;;;;10.48;2.08;;;4.10;99.90;;;;;;5309168;26;20002;-74
2024/04/20 04:52:46;;;;;;;11.10;2.15;;;4.00;99.90;;;;;;5343877;26;20001;-74
2024/04/20 04:55:12;;;;;;;11.13;2.42;;;4.00;99.90;;;;;;5344755;26;20433;-74
2024/04/20 04:57:37;;;;;;;9.88;2.70;;;4.10;99.90;;;;;;5281496;26;20002;-74
2024/04/20 05:00:04;;;;;;;10.27;2.30;;;4.00;99.90;;;;;;5334327;26;20001;-74
2024/04/20 05:02:29;;;;;;;16.95;2.38;;;3.90;99.90;;;;;;5304065;26;20025;-74
2024/04/20 05:04:55;;;;;;;11.68;2.83;;;3.90;99.90;;;;;;5318846;26;20012;-75
2024/04/20 05:07:20;;;;;;;11.07;1.88;;;4.00;99.90;;;;;;5305753;26;20010;-74
2024/04/20 05:09:46;;;;;;;10.77;2.55;;;3.90;99.90;;;;;;5316166;26;20322;-73
2024/04/20 05:12:12;;;;;;;6.13;2.33;;;3.80;99.90;;;;;;5353079;26;20052;-74
2024/04/20 05:14:37;;;;;;;9.10;2.30;;;3.70;99.90;;;;;;5359367;26;20015;-74
2024/04/20 05:17:03;;;;;;;8.55;2.20;;;3.60;99.90;;;;;;5352084;26;20026;-74
2024/04/20 05:19:29;;;;;;;8.50;2.33;;;3.60;99.90;;;;;;5311023;26;20009;-75
2024/04/20 05:21:55;;;;;;;6.55;1.92;;;3.60;99.90;;;;;;5320979;26;20090;-74
2024/04/20 05:24:24;;;;;;;6.38;2.60;;;3.50;99.90;;;;;;5344389;26;20001;-74
2024/04/20 05:26:50;;;;;;;7.03;2.22;;;3.40;99.90;;;;;;5333003;26;20013;-74
2024/04/20 05:29:16;;;;;;;10.85;2.50;;;3.40;99.90;;;;;;5327527;26;19993;-74
2024/04/20 05:31:42;;;;;;;8.93;3.13;;;3.40;99.90;;;;;;5320145;26;20148;-75
2024/04/20 05:34:07;;;;;;;11.10;3.03;;;3.40;99.90;;;;;;5312148;26;20396;-73
2024/04/20 05:36:33;;;;;;;9.50;3.10;;;3.50;99.90;;;;;;5316444;26;20505;-75
2024/04/20 05:38:59;;;;;;;10.77;2.67;;;3.50;99.90;;;;;;5275186;26;20021;-75
2024/04/20 05:41:25;;;;;;;8.38;2.58;;;3.50;99.90;;;;;;5314302;26;20726;-75
2024/04/20 05:43:50;;;;;;;8.75;2.28;;;3.60;99.90;;;;;;5298004;26;20147;-74
2024/04/20 05:46:16;;;;;;;4.85;2.13;;;3.70;99.90;;;;;;5294123;27;20009;-75
2024/04/20 05:48:41;;;;;;;5.65;1.98;;;3.80;99.90;;;;;;5320994;26;20743;-76
2024/04/20 05:51:07;;;;;;;6.40;2.38;;;3.80;99.90;;;;;;5340985;26;20689;-75
2024/04/20 05:53:32;;;;;;;8.45;2.03;;;3.80;99.90;;;;;;5297205;26;19993;-74
2024/04/20 05:56:00;;;;;;;8.95;2.50;;;3.90;99.90;;;;;;5330896;26;20013;-75
2024/04/20 05:58:25;;;;;;;5.85;2.03;;;4.10;99.90;;;;;;5309827;26;19993;-76
2024/04/20 06:00:51;;;;;;;9.73;1.92;;;4.10;99.90;;;;;;5340976;26;20038;-75
2024/04/20 06:03:16;;;;;;;4.70;1.85;;;4.20;99.90;;;;;;5322198;26;20041;-76
2024/04/20 06:05:45;;;;;;;11.18;2.78;;;4.20;99.90;;;;;;5323452;26;20649;-74
2024/04/20 06:08:10;;;;;;;7.95;2.00;;;4.40;99.90;;;;;;5317112;26;20429;-74
2024/04/20 06:10:36;;;;;;;5.18;1.60;;;4.60;99.90;;;;;;5340690;26;20001;-74
2024/04/20 06:13:01;;;;;;;2.75;1.50;;;4.60;99.90;;;;;;5332840;26;19997;-75
2024/04/20 06:15:27;;;;;;;5.20;1.67;;;4.70;99.90;;;;;;5250711;26;20330;-74
2024/04/20 06:17:53;;;;;;;9.63;1.83;;;4.80;99.90;;;;;;5318755;26;20012;-76
2024/04/20 06:20:18;;;;;;;5.38;1.83;;;4.80;99.90;;;;;;5323711;26;20087;-75
2024/04/20 06:22:44;;;;;;;4.63;1.55;;;4.90;99.90;;;;;;5303381;26;20669;-75
2024/04/20 06:25:11;;;;;;;4.38;1.70;;;4.90;99.90;;;;;;5312956;26;20021;-75
2024/04/20 06:27:37;;;;;;;7.05;1.85;;;5.10;99.90;;;;;;5276982;27;20002;-74
2024/04/20 06:30:03;;;;;;;7.40;1.83;;;5.20;99.90;;;;;;5330082;26;20342;-76
2024/04/20 06:32:30;;;;;;;5.95;1.80;;;5.20;99.90;;;;;;5294788;26;20024;-74
2024/04/20 06:34:55;;;;;;;6.05;1.70;;;5.30;99.90;;;;;;5329154;26;20682;-74
2024/04/20 06:37:21;;;;;;;4.70;1.55;;;5.20;99.90;;;;;;5309465;26;19998;-74
2024/04/20 06:39:47;;;;;;;6.32;1.65;;;5.30;99.90;;;;;;5328086;26;20005;-74
2024/04/20 06:42:13;;;;;;;6.53;1.80;;;5.30;99.90;;;;;;5319343;26;20032;-74
2024/04/20 06:44:39;;;;;;;7.40;2.17;;;5.30;99.90;;;;;;5314853;26;19993;-75
2024/04/20 06:47:04;;;;;;;9.80;1.92;;;5.40;99.90;;;;;;5287214;26;20416;-74
2024/04/20 06:49:30;;;;;;;5.78;1.92;;;5.40;99.90;;;;;;5312615;26;20017;-74
2024/04/20 06:51:56;;;;;;;7.72;2.08;;;5.50;99.90;;;;;;5337613;26;20012;-74
2024/04/20 06:54:21;;;;;;;8.55;2.22;;;5.60;99.90;;;;;;5318710;26;20422;-75
2024/04/20 06:56:47;;;;;;;4.53;1.90;;;5.60;99.90;;;;;;5339919;26;20001;-75
2024/04/20 06:59:13;;;;;;;7.65;2.03;;;5.60;99.90;;;;;;5323553;26;20470;-75
2024/04/20 07:01:38;;;;;;;6.80;2.10;;;5.70;99.90;;;;;;5278670;26;20049;-75
2024/04/20 07:04:04;;;;;;;5.32;1.90;;;5.80;99.90;;;;;;5293825;26;20017;-74
2024/04/20 07:06:29;;;;;;;2.50;1.60;;;5.80;99.90;;;;;;5302793;26;20006;-73
2024/04/20 07:08:55;;;;;;;4.20;1.73;;;5.90;99.90;;;;;;5320954;26;20337;-74
2024/04/20 07:11:21;;;;;;;4.25;1.58;;;5.80;99.90;;;;;;5342518;26;20032;-80
2024/04/20 07:13:47;;;;;;;7.40;1.73;;;5.70;99.90;;;;;;5298633;26;20006;-78
2024/04/20 07:16:12;;;;;;;3.40;1.50;;;5.80;99.90;;;;;;5315362;26;20024;-75
2024/04/20 07:18:38;;;;;;;3.28;1.77;;;5.90;99.90;;;;;;5300316;26;20430;-74
2024/04/20 07:21:05;;;;;;;5.32;1.58;;;6.10;99.90;;;;;;5302745;26;20009;-76
2024/04/20 07:23:31;;;;;;;8.23;1.98;;;6.20;99.90;;;;;;5296581;26;20421;-76
2024/04/20 07:26:00;;;;;;;7.60;1.88;;;6.30;99.90;;;;;;5329920;26;20074;-75
2024/04/20 07:28:26;;;;;;;2.67;1.63;;;6.40;99.90;;;;;;5299868;26;20008;-73
2024/04/20 07:30:52;;;;;;;12.05;2.20;;;6.50;99.90;;;;;;5321860;26;20606;-75
2024/04/20 07:33:18;;;;;;;4.82;1.90;;;6.60;99.90;;;;;;5311043;26;20012;-74
2024/04/20 07:35:43;;;;;;;4.40;1.50;;;6.60;99.90;;;;;;5339720;26;20466;-75
2024/04/20 07:38:09;;;;;;;4.82;1.90;;;6.70;99.90;;;;;;5301499;26;20442;-74
2024/04/20 07:40:35;;;;;;;7.30;2.38;;;6.80;99.90;;;;;;5308074;26;20012;-75
2024/04/20 07:43:01;;;;;;;3.92;1.98;;;6.90;99.90;;;;;;5290313;26;20008;-75
2024/04/20 07:45:27;;;;;;;7.13;2.38;;;7.10;99.90;;;;;;5291188;26;20335;-75
2024/04/20 07:47:53;;;;;;;4.82;2.20;;;7.20;99.90;;;;;;5343329;26;19997;-75
2024/04/20 07:50:18;;;;;;;6.72;2.20;;;7.30;99.90;;;;;;5328752;26;20094;-75
2024/04/20 07:52:45;;;;;;;4.53;1.80;;;7.40;99.90;;;;;;5319749;26;20005;-76
2024/04/20 07:55:11;;;;;;;6.43;2.53;;;7.40;99.90;;;;;;5309019;26;20088;-73
2024/04/20 07:57:36;;;;;;;5.45;2.05;;;7.20;99.90;;;;;;5308653;27;20026;-75
2024/04/20 08:00:02;;;;;;;6.63;2.28;;;7.10;99.90;;;;;;5315140;26;20005;-75
2024/04/20 08:02:28;;;;;;;4.35;2.13;;;7.10;99.90;;;;;;5333772;26;20450;-75
2024/04/20 08:04:54;;;;;;;4.40;2.17;;;7.10;99.90;;;;;;5344716;26;20051;-74
2024/04/20 08:07:21;;;;;;;3.38;1.85;;;7.20;99.90;;;;;;5323701;26;20338;-76
2024/04/20 08:09:47;;;;;;;8.13;1.92;;;7.30;99.90;;;;;;5344810;26;20008;-77
2024/04/20 08:12:12;;;;;;;4.28;2.30;;;7.40;99.90;;;;;;5323082;26;20442;-73
2024/04/20 08:14:38;;;;;;;4.60;1.88;;;7.60;99.90;;;;;;5343137;26;20001;-74
2024/04/20 08:17:04;;;;;;;5.18;2.03;;;7.70;99.90;;;;;;5325302;26;20045;-74
2024/04/20 08:19:29;;;;;;;4.50;2.20;;;7.70;99.90;;;;;;5321445;26;20103;-75
2024/04/20 08:21:55;;;;;;;2.75;1.90;;;7.80;99.90;;;;;;5343388;26;20087;-74
2024/04/20 08:24:20;;;;;;;4.45;1.70;;;7.90;99.90;;;;;;5334246;26;20448;-74
2024/04/20 08:26:46;;;;;;;3.13;1.42;;;7.90;99.90;;;;;;5323527;26;20008;-74
2024/04/20 08:29:12;;;;;;;4.07;1.80;;;7.80;99.90;;;;;;5285221;26;20014;-73
2024/04/20 08:31:37;;;;;;;4.82;2.00;;;7.60;99.90;;;;;;5329242;26;19997;-74
2024/04/20 08:34:04;;;;;;;2.90;1.65;;;7.40;99.90;;;;;;5335834;26;20049;-76
2024/04/20 08:36:29;;;;;;;3.42;1.73;;;7.50;99.90;;;;;;5331823;26;20004;-73
2024/04/20 08:38:55;;;;;;;4.18;1.58;;;7.50;99.90;;;;;;5343853;26;20001;-73
2024/04/20 08:41:24;;;;;;;2.70;1.70;;;7.70;99.90;;;;;;5343463;26;20445;-73
2024/04/20 08:43:51;;;;;;;4.20;2.23;;;7.70;99.90;;;;;;5336201;26;20009;-72
2024/04/20 08:46:17;;;;;;;3.75;1.70;;;7.70;99.90;;;;;;5302616;26;20175;-77
2024/04/20 08:48:47;;;;;;;4.93;2.03;;;7.50;99.90;;;;;;5311733;26;19997;-74
2024/04/20 08:51:20;;;;;;;5.00;1.73;;;7.50;99.90;;;;;;5307214;27;20008;-74
2024/04/20 08:53:48;;;;;;;7.88;1.98;;;7.30;99.90;;;;;;5289881;26;19997;-76
2024/04/20 08:56:14;;;;;;;6.25;1.98;;;7.20;99.90;;;;;;5306616;26;19997;-75
2024/04/20 08:58:39;;;;;;;5.43;2.13;;;7.10;99.90;;;;;;5341941;26;20024;-71
2024/04/20 09:01:15;;;;;;;7.43;2.50;;;7.10;99.90;;;;;;5315494;26;20446;-73
2024/04/20 09:03:42;;;;;;;3.65;1.83;;;7.10;99.90;;;;;;5315547;26;20025;-73
2024/04/20 09:06:10;;;;;;;4.13;2.10;;;7.20;99.90;;;;;;5283825;26;20015;-75
2024/04/20 09:08:37;;;;;;;3.15;2.00;;;7.20;99.90;;;;;;5342604;26;20001;-73
2024/04/20 09:11:03;;;;;;;7.85;2.60;;;7.20;99.90;;;;;;5343870;26;20012;-73
2024/04/20 09:13:28;;;;;;;8.88;2.60;;;7.30;99.90;;;;;;5341902;26;20013;-72
2024/04/20 09:15:55;;;;;;;6.85;2.50;;;7.50;99.90;;;;;;5343823;26;20070;-73
2024/04/20 09:18:21;;;;;;;4.85;2.28;;;7.90;99.90;;;;;;5337781;26;19998;-74
2024/04/20 09:20:47;;;;;;;6.25;2.20;;;8.50;99.90;;;;;;5311053;26;20005;-73
2024/04/20 09:23:13;;;;;;;4.88;1.67;;;9.00;99.90;;;;;;5339443;26;20009;-73
2024/04/20 09:25:39;;;;;;;3.63;1.80;;;9.00;99.90;;;;;;5306726;26;20512;-73
2024/04/20 09:28:05;;;;;;;3.63;1.92;;;9.00;99.90;;;;;;5327572;26;20001;-75
2024/04/20 09:30:31;;;;;;;5.95;1.90;;;8.80;99.90;;;;;;5326049;26;20013;-73
2024/04/20 09:32:57;;;;;;;2.38;1.58;;;8.70;99.90;;;;;;5320724;26;20030;-73
2024/04/20 09:35:24;;;;;;;4.43;1.83;;;8.80;99.90;;;;;;5315775;26;20499;-71
2024/04/20 09:37:52;;;;;;;5.03;1.77;;;8.90;99.90;;;;;;5342946;26;20067;-73
2024/04/20 09:40:18;;;;;;;2.85;1.48;;;9.00;99.90;;;;;;5344135;26;19997;-73
2024/04/20 09:42:46;;;;;;;3.72;1.40;;;9.20;99.90;;;;;;5303741;26;20084;-73
2024/04/20 09:45:12;;;;;;;2.72;1.70;;;9.50;99.90;;;;;;5332000;26;20009;-73
2024/04/20 09:47:40;;;;;;;2.38;1.70;;;9.50;99.90;;;;;;5328148;26;20005;-74
2024/04/20 09:50:12;;;;;;;1.60;1.50;;;9.40;99.90;;;;;;5343229;26;20004;-74
2024/04/20 09:53:08;;;;;;;2.67;1.40;;;9.30;99.90;;;;;;5340866;26;20005;-74
2024/04/20 09:55:39;;;;;;;2.53;1.02;;;9.30;99.90;;;;;;5325910;26;19997;-73
2024/04/20 09:58:08;;;;;;;4.43;1.60;;;9.20;99.90;;;;;;5334433;26;20071;-73
2024/04/20 10:00:35;;;;;;;4.05;1.40;;;9.20;99.90;;;;;;5298327;26;20033;-74
2024/04/20 10:03:04;;;;;;;7.45;2.05;;;9.20;99.90;;;;;;5342352;26;20004;-73
2024/04/20 10:05:33;;;;;;;4.18;1.40;;;9.10;99.90;;;;;;5344721;26;20078;-73
2024/04/20 10:08:00;;;;;;;3.88;1.60;;;9.00;99.90;;;;;;5345633;26;20004;-74
2024/04/20 10:10:27;;;;;;;6.00;1.77;;;9.00;99.90;;;;;;5340216;26;20001;-73
2024/04/20 10:13:00;;;;;;;2.03;1.65;;;9.00;99.90;;;;;;5346042;26;20016;-74
2024/04/20 10:15:30;;;;;;;2.83;1.30;;;9.20;99.90;;;;;;5302800;26;20017;-72
2024/04/20 10:17:57;;;;;;;4.70;1.60;;;9.60;99.90;;;;;;5321785;26;20012;-74
2024/04/20 10:20:38;;;;;;;4.70;2.20;;;9.60;99.90;;;;;;5327189;26;20023;-72
2024/04/20 10:23:15;;;;;;;2.25;2.05;;;9.40;99.90;;;;;;5345786;26;20059;-74
2024/04/20 10:25:43;;;;;;;4.10;1.80;;;9.50;99.90;;;;;;5344881;26;20011;-73
2024/04/20 10:28:09;;;;;;;4.85;1.88;;;9.50;99.90;;;;;;5333088;26;20449;-73
2024/04/20 10:30:35;;;;;;;2.60;1.83;;;9.40;99.90;;;;;;5345618;26;19997;-75
2024/04/20 10:33:06;;;;;;;4.07;1.85;;;9.40;99.90;;;;;;5343441;26;20453;-73
2024/04/20 10:35:32;;;;;;;8.23;2.20;;;9.30;99.90;;;;;;5312359;26;20001;-73
2024/04/20 10:38:03;;;;;;;4.80;1.90;;;9.20;99.90;;;;;;5345380;26;20028;-74
2024/04/20 10:40:30;;;;;;;4.65;1.75;;;9.20;99.90;;;;;;5344567;26;20465;-73
2024/04/20 10:43:11;;;;;;;3.42;1.70;;;9.20;99.90;;;;;;5345535;26;20012;-73
2024/04/20 10:45:37;;;;;;;6.55;1.90;;;9.30;99.90;;;;;;5344018;26;20543;-73
2024/04/20 10:48:03;;;;;;;1.98;1.35;;;9.40;99.90;;;;;;5345904;26;20012;-73
2024/04/20 10:50:29;;;;;;;7.07;2.13;;;9.40;99.90;;;;;;5317562;26;20006;-75
2024/04/20 10:53:05;;;;;;;7.70;3.35;;;9.50;99.90;;;;;;5311629;26;20012;-75
2024/04/20 10:55:31;;;;;;;5.25;2.30;;;9.40;99.90;;;;;;5323149;26;20001;-77
2024/04/20 10:57:57;;;;;;;6.65;2.05;;;9.30;99.90;;;;;;5345536;26;20444;-72
2024/04/20 11:00:23;;;;;;;4.18;1.80;;;9.30;99.90;;;;;;5322214;26;20009;-74
2024/04/20 11:02:52;;;;;;;4.90;2.20;;;9.30;99.90;;;;;;5320453;26;19996;-74
2024/04/20 11:05:18;;;;;;;6.87;2.10;;;9.50;99.90;;;;;;5345651;26;20401;-73
2024/04/20 11:07:44;;;;;;;5.47;2.60;;;9.70;99.90;;;;;;5318227;26;20006;-71
2024/04/20 11:10:16;;;;;;;7.78;1.92;;;9.70;99.90;;;;;;5320962;26;20071;-72
2024/04/20 11:12:42;;;;;;;4.38;2.25;;;9.60;99.90;;;;;;5340513;26;20005;-73
2024/04/20 11:15:07;;;;;;;5.28;1.67;;;9.50;99.90;;;;;;5345330;26;20040;-72
2024/04/20 11:17:36;;;;;;;3.72;1.60;;;9.50;99.90;;;;;;5343906;26;20442;-72
2024/04/20 11:20:03;;;;;;;3.08;1.40;;;9.50;99.90;;;;;;5335978;26;20005;-73
2024/04/20 11:22:30;;;;;;;6.80;1.55;;;9.60;99.90;;;;;;5343951;26;20029;-72
2024/04/20 11:25:06;;;;;;;4.13;1.38;;;9.50;99.90;;;;;;5314535;26;20013;-72
2024/04/20 11:27:32;;;;;;;3.30;1.38;;;9.40;99.90;;;;;;5320280;26;20295;-72
2024/04/20 11:30:00;;;;;;;4.32;1.52;;;9.50;99.90;;;;;;5345591;26;20008;-73
2024/04/20 11:32:26;;;;;;;3.20;1.50;;;9.60;99.90;;;;;;5328192;26;20009;-72
2024/04/20 11:34:53;;;;;;;4.82;2.08;;;9.80;99.60;;;;;;5332996;26;20082;-72
2024/04/20 11:37:23;;;;;;;5.00;1.73;;;9.90;99.90;;;;;;5344810;26;20001;-73
2024/04/20 11:39:49;;;;;;;2.83;1.85;;;10.00;99.50;;;;;;5330213;26;20080;-73
2024/04/20 11:42:18;;;;;;;6.78;1.63;;;10.10;99.60;;;;;;5318705;26;20016;-72
2024/04/20 11:44:44;;;;;;;4.25;1.48;;;10.30;99.30;;;;;;5344282;26;20647;-73
2024/04/20 11:47:16;;;;;;;2.80;1.52;;;10.40;99.30;;;;;;5344884;26;20001;-73
2024/04/20 11:49:50;;;;;;;4.00;1.67;;;10.60;99.50;;;;;;5345285;26;20011;-73
2024/04/20 11:55:08;;;;;;;4.13;1.88;;;10.80;98.70;;;;;;5345573;26;20066;-73
2024/04/20 11:57:33;;;;;;;3.72;1.17;;;10.70;98.70;;;;;;5319282;26;20045;-72
2024/04/20 12:00:03;;;;;;;3.20;1.88;;;10.60;99.00;;;;;;5324409;26;20002;-73
2024/04/20 12:02:28;;;;;;;3.45;1.42;;;10.60;98.90;;;;;;5311011;26;19997;-72
2024/04/20 12:04:54;;;;;;;4.90;1.90;;;10.50;99.00;;;;;;5344584;26;20011;-73
2024/04/20 12:07:19;;;;;;;6.63;1.50;;;10.60;98.40;;;;;;5343968;26;19993;-73
2024/04/20 12:09:45;;;;;;;3.20;1.73;;;10.80;98.90;;;;;;5343409;26;20012;-73
2024/04/20 12:12:10;;;;;;;5.53;1.70;;;10.70;98.30;;;;;;5338534;26;20001;-73
2024/04/20 12:14:37;;;;;;;4.97;1.63;;;10.60;98.80;;;;;;5305327;26;20084;-72
2024/04/20 12:17:02;;;;;;;5.30;1.55;;;10.60;98.90;;;;;;5321901;26;20367;-73
2024/04/20 12:19:28;;;;;;;2.72;1.38;;;10.70;99.10;;;;;;5334232;26;20032;-73
2024/04/20 12:21:53;;;;;;;13.27;4.50;;;10.90;98.00;;;;;;5344334;26;20019;-73
2024/04/20 12:24:19;;;;;;;6.18;1.60;;;10.80;97.70;;;;;;5343370;26;20004;-72
2024/04/20 12:26:45;;;;;;;5.28;2.58;;;10.80;97.60;;;;;;5330524;26;20020;-73
2024/04/20 12:29:11;;;;;;;6.25;2.38;;;10.80;97.90;;;;;;5343689;26;20163;-73
2024/04/20 12:31:36;;;;;;;4.63;1.63;;;11.00;98.30;;;;;;5310256;26;20006;-73
2024/04/20 12:34:05;;;;;;;2.38;1.40;;;;;;;;;;5319906;26;20108;-73
2024/04/20 12:36:31;;;;;;;1.60;1.50;;;11.30;99.90;;;;;;5343102;26;20040;-73
2024/04/20 12:38:57;;;;;;;9.48;1.58;;;11.30;96.40;;;;;;5344155;26;20004;-73
2024/04/20 12:41:22;;;;;;;3.72;1.50;;;11.40;96.90;;;;;;5325077;26;20454;-73
2024/04/20 12:43:50;;;;;;;2.33;1.50;;;11.70;96.60;;;;;;5342145;26;20083;-73
2024/04/20 12:46:16;;;;;;;5.68;1.65;;;11.70;95.40;;;;;;5344798;26;20001;-73
2024/04/20 12:48:41;;;;;;;1.38;0.88;;;11.90;96.00;;;;;;5309455;26;20005;-73
2024/04/20 12:51:07;;;;;;;2.65;1.25;;;12.20;96.20;;;;;;5343459;26;20012;-73
2024/04/20 12:53:33;;;;;;;3.03;1.23;;;12.80;95.00;;;;;;5342901;26;20005;-72